sensor_id;sensor_type;location;lat;lon;timestamp;temperature;humidity
67249;SHT31;63247;54.300;18.592;2023-09-30T00:02:20;17.71;99.99
67249;SHT31;63247;54.300;18.592;2023-09-30T00:04:45;17.76;99.99
67249;SHT31;63247;54.300;18.592;2023-09-30T00:07:11;17.73;99.99
67249;SHT31;63247;54.300;18.592;2023-09-30T00:09:36;17.75;99.99
67249;SHT31;63247;54.300;18.592;2023-09-30T00:12:02;17.76;99.99
67249;SHT31;63247;54.300;18.592;2023-09-30T00:14:28;17.81;99.99
67249;SHT31;63247;54.300;18.592;2023-09-30T00:16:54;17.90;99.99
67249;SHT31;63247;54.300;18.592;2023-09-30T00:19:19;17.93;99.99
67249;SHT31;63247;54.300;18.592;2023-09-30T00:21:44;17.87;99.99
67249;SHT31;63247;54.300;18.592;2023-09-30T00:24:10;17.90;99.99
67249;SHT31;63247;54.300;18.592;2023-09-30T00:26:35;17.87;99.99
67249;SHT31;63247;54.300;18.592;2023-09-30T00:29:01;17.93;99.99
67249;SHT31;63247;54.300;18.592;2023-09-30T00:31:29;17.93;99.99
67249;SHT31;63247;54.300;18.592;2023-09-30T00:33:55;17.97;99.99
67249;SHT31;63247;54.300;18.592;2023-09-30T00:36:21;17.92;99.99
67249;SHT31;63247;54.300;18.592;2023-09-30T00:38:47;17.94;99.99
67249;SHT31;63247;54.300;18.592;2023-09-30T00:41:12;18.04;99.99
67249;SHT31;63247;54.300;18.592;2023-09-30T00:43:38;18.12;99.99
67249;SHT31;63247;54.300;18.592;2023-09-30T00:46:16;18.26;99.99
67249;SHT31;63247;54.300;18.592;2023-09-30T00:48:43;18.33;99.99
67249;SHT31;63247;54.300;18.592;2023-09-30T00:51:09;18.36;99.99
67249;SHT31;63247;54.300;18.592;2023-09-30T00:53:34;18.27;99.99
67249;SHT31;63247;54.300;18.592;2023-09-30T00:56:00;18.20;99.99
67249;SHT31;63247;54.300;18.592;2023-09-30T00:58:26;18.14;99.99
67249;SHT31;63247;54.300;18.592;2023-09-30T01:00:54;18.07;99.99
67249;SHT31;63247;54.300;18.592;2023-09-30T01:03:21;18.09;99.99
67249;SHT31;63247;54.300;18.592;2023-09-30T01:05:47;18.12;99.99
67249;SHT31;63247;54.300;18.592;2023-09-30T01:08:13;18.09;99.99
67249;SHT31;63247;54.300;18.592;2023-09-30T01:10:38;18.00;99.99
67249;SHT31;63247;54.300;18.592;2023-09-30T01:13:04;17.99;99.99
67249;SHT31;63247;54.300;18.592;2023-09-30T01:15:29;18.03;99.99
67249;SHT31;63247;54.300;18.592;2023-09-30T01:17:54;17.93;99.99
67249;SHT31;63247;54.300;18.592;2023-09-30T01:20:20;17.92;99.99
67249;SHT31;63247;54.300;18.592;2023-09-30T01:22:47;17.90;99.99
67249;SHT31;63247;54.300;18.592;2023-09-30T01:25:13;17.82;99.99
67249;SHT31;63247;54.300;18.592;2023-09-30T01:27:38;17.73;99.99
67249;SHT31;63247;54.300;18.592;2023-09-30T01:30:04;17.62;99.99
67249;SHT31;63247;54.300;18.592;2023-09-30T01:32:29;17.65;99.99
67249;SHT31;63247;54.300;18.592;2023-09-30T01:34:55;17.64;99.99
67249;SHT31;63247;54.300;18.592;2023-09-30T01:37:21;17.73;99.99
67249;SHT31;63247;54.300;18.592;2023-09-30T01:39:46;17.83;99.99
67249;SHT31;63247;54.300;18.592;2023-09-30T01:42:14;17.79;99.99
67249;SHT31;63247;54.300;18.592;2023-09-30T01:44:39;17.83;99.99
67249;SHT31;63247;54.300;18.592;2023-09-30T01:47:04;17.97;99.99
67249;SHT31;63247;54.300;18.592;2023-09-30T01:49:30;17.94;99.99
67249;SHT31;63247;54.300;18.592;2023-09-30T01:51:55;17.85;99.99
67249;SHT31;63247;54.300;18.592;2023-09-30T01:54:21;17.81;99.99
67249;SHT31;63247;54.300;18.592;2023-09-30T01:56:46;17.81;99.99
67249;SHT31;63247;54.300;18.592;2023-09-30T01:59:11;17.89;99.99
67249;SHT31;63247;54.300;18.592;2023-09-30T02:01:37;17.92;99.99
67249;SHT31;63247;54.300;18.592;2023-09-30T02:04:02;17.92;99.99
67249;SHT31;63247;54.300;18.592;2023-09-30T02:06:27;17.92;99.99
67249;SHT31;63247;54.300;18.592;2023-09-30T02:08:53;17.87;99.99
67249;SHT31;63247;54.300;18.592;2023-09-30T02:11:18;17.93;99.99
67249;SHT31;63247;54.300;18.592;2023-09-30T02:13:44;17.85;99.99
67249;SHT31;63247;54.300;18.592;2023-09-30T02:16:13;17.90;99.99
67249;SHT31;63247;54.300;18.592;2023-09-30T02:18:39;17.87;99.99
67249;SHT31;63247;54.300;18.592;2023-09-30T02:21:06;17.86;99.99
67249;SHT31;63247;54.300;18.592;2023-09-30T02:23:34;17.89;99.99
67249;SHT31;63247;54.300;18.592;2023-09-30T02:25:59;17.83;99.99
67249;SHT31;63247;54.300;18.592;2023-09-30T02:28:24;17.85;99.99
67249;SHT31;63247;54.300;18.592;2023-09-30T02:30:50;17.86;99.99
67249;SHT31;63247;54.300;18.592;2023-09-30T02:33:15;17.81;99.99
67249;SHT31;63247;54.300;18.592;2023-09-30T02:35:45;17.78;99.99
67249;SHT31;63247;54.300;18.592;2023-09-30T02:38:11;17.71;99.99
67249;SHT31;63247;54.300;18.592;2023-09-30T02:40:37;17.72;99.99
67249;SHT31;63247;54.300;18.592;2023-09-30T02:43:03;17.83;99.99
67249;SHT31;63247;54.300;18.592;2023-09-30T02:45:29;17.92;99.99
67249;SHT31;63247;54.300;18.592;2023-09-30T02:47:54;17.93;99.99
67249;SHT31;63247;54.300;18.592;2023-09-30T02:50:20;17.93;99.99
67249;SHT31;63247;54.300;18.592;2023-09-30T02:52:46;18.03;99.99
67249;SHT31;63247;54.300;18.592;2023-09-30T02:55:12;17.99;99.99
67249;SHT31;63247;54.300;18.592;2023-09-30T02:57:37;17.99;99.99
67249;SHT31;63247;54.300;18.592;2023-09-30T03:00:06;17.99;99.99
67249;SHT31;63247;54.300;18.592;2023-09-30T03:02:49;17.97;99.99
67249;SHT31;63247;54.300;18.592;2023-09-30T03:05:16;18.10;99.99
67249;SHT31;63247;54.300;18.592;2023-09-30T03:07:41;18.03;99.99
67249;SHT31;63247;54.300;18.592;2023-09-30T03:10:07;18.07;99.99
67249;SHT31;63247;54.300;18.592;2023-09-30T03:12:34;18.06;99.99
67249;SHT31;63247;54.300;18.592;2023-09-30T03:15:00;18.02;99.99
67249;SHT31;63247;54.300;18.592;2023-09-30T03:17:29;17.97;99.99
67249;SHT31;63247;54.300;18.592;2023-09-30T03:19:55;17.99;99.99
67249;SHT31;63247;54.300;18.592;2023-09-30T03:22:22;18.02;99.99
67249;SHT31;63247;54.300;18.592;2023-09-30T03:24:47;18.06;99.99
67249;SHT31;63247;54.300;18.592;2023-09-30T03:27:13;18.04;99.99
67249;SHT31;63247;54.300;18.592;2023-09-30T03:29:39;18.02;99.99
67249;SHT31;63247;54.300;18.592;2023-09-30T03:32:06;18.07;99.99
67249;SHT31;63247;54.300;18.592;2023-09-30T03:34:31;18.03;99.99
67249;SHT31;63247;54.300;18.592;2023-09-30T03:36:57;17.94;99.99
67249;SHT31;63247;54.300;18.592;2023-09-30T03:39:24;18.07;99.99
67249;SHT31;63247;54.300;18.592;2023-09-30T03:41:54;18.10;99.99
67249;SHT31;63247;54.300;18.592;2023-09-30T03:44:19;18.06;99.99
67249;SHT31;63247;54.300;18.592;2023-09-30T03:46:45;18.09;99.99
67249;SHT31;63247;54.300;18.592;2023-09-30T03:49:10;18.04;99.99
67249;SHT31;63247;54.300;18.592;2023-09-30T03:51:35;17.92;99.99
67249;SHT31;63247;54.300;18.592;2023-09-30T03:54:02;17.65;99.99
67249;SHT31;63247;54.300;18.592;2023-09-30T03:56:28;17.54;99.99
67249;SHT31;63247;54.300;18.592;2023-09-30T03:58:53;17.42;99.99
67249;SHT31;63247;54.300;18.592;2023-09-30T04:01:18;17.23;99.99
67249;SHT31;63247;54.300;18.592;2023-09-30T04:03:45;17.18;99.99
67249;SHT31;63247;54.300;18.592;2023-09-30T04:06:10;17.10;99.99
67249;SHT31;63247;54.300;18.592;2023-09-30T04:08:36;17.00;99.99
67249;SHT31;63247;54.300;18.592;2023-09-30T04:11:02;16.94;99.99
67249;SHT31;63247;54.300;18.592;2023-09-30T04:13:30;16.90;99.99
67249;SHT31;63247;54.300;18.592;2023-09-30T04:15:56;16.83;99.99
67249;SHT31;63247;54.300;18.592;2023-09-30T04:18:23;16.79;99.99
67249;SHT31;63247;54.300;18.592;2023-09-30T04:20:51;16.77;99.99
67249;SHT31;63247;54.300;18.592;2023-09-30T04:23:17;16.72;99.99
67249;SHT31;63247;54.300;18.592;2023-09-30T04:25:45;16.69;99.99
67249;SHT31;63247;54.300;18.592;2023-09-30T04:28:12;16.58;99.99
67249;SHT31;63247;54.300;18.592;2023-09-30T04:30:37;16.48;99.99
67249;SHT31;63247;54.300;18.592;2023-09-30T04:33:03;16.39;99.99
67249;SHT31;63247;54.300;18.592;2023-09-30T04:35:32;16.32;99.99
67249;SHT31;63247;54.300;18.592;2023-09-30T04:37:57;16.21;99.99
67249;SHT31;63247;54.300;18.592;2023-09-30T04:40:26;16.28;99.99
67249;SHT31;63247;54.300;18.592;2023-09-30T04:42:52;16.12;99.99
67249;SHT31;63247;54.300;18.592;2023-09-30T04:45:23;16.15;99.99
67249;SHT31;63247;54.300;18.592;2023-09-30T04:47:50;16.11;99.99
67249;SHT31;63247;54.300;18.592;2023-09-30T04:50:15;16.17;99.43
67249;SHT31;63247;54.300;18.592;2023-09-30T04:52:42;16.19;98.96
67249;SHT31;63247;54.300;18.592;2023-09-30T04:55:07;16.12;99.05
67249;SHT31;63247;54.300;18.592;2023-09-30T04:57:33;16.08;99.08
67249;SHT31;63247;54.300;18.592;2023-09-30T04:59:59;16.04;98.91
67249;SHT31;63247;54.300;18.592;2023-09-30T05:02:26;16.10;98.73
67249;SHT31;63247;54.300;18.592;2023-09-30T05:04:51;15.87;98.41
67249;SHT31;63247;54.300;18.592;2023-09-30T05:07:17;15.81;98.37
67249;SHT31;63247;54.300;18.592;2023-09-30T05:09:43;15.70;98.33
67249;SHT31;63247;54.300;18.592;2023-09-30T05:12:09;15.69;97.97
67249;SHT31;63247;54.300;18.592;2023-09-30T05:14:35;15.59;98.31
67249;SHT31;63247;54.300;18.592;2023-09-30T05:17:02;15.62;98.26
67249;SHT31;63247;54.300;18.592;2023-09-30T05:19:29;15.64;97.92
67249;SHT31;63247;54.300;18.592;2023-09-30T05:21:57;15.56;98.12
67249;SHT31;63247;54.300;18.592;2023-09-30T05:24:22;15.57;97.95
67249;SHT31;63247;54.300;18.592;2023-09-30T05:26:47;15.60;97.95
67249;SHT31;63247;54.300;18.592;2023-09-30T05:29:13;15.62;98.33
67249;SHT31;63247;54.300;18.592;2023-09-30T05:31:38;15.53;98.31
67249;SHT31;63247;54.300;18.592;2023-09-30T05:34:04;15.53;98.02
67249;SHT31;63247;54.300;18.592;2023-09-30T05:36:29;15.63;97.66
67249;SHT31;63247;54.300;18.592;2023-09-30T05:38:55;15.60;97.45
67249;SHT31;63247;54.300;18.592;2023-09-30T05:41:20;15.73;96.39
67249;SHT31;63247;54.300;18.592;2023-09-30T05:43:46;15.84;95.95
67249;SHT31;63247;54.300;18.592;2023-09-30T05:46:12;16.18;94.41
67249;SHT31;63247;54.300;18.592;2023-09-30T05:48:38;16.69;92.82
67249;SHT31;63247;54.300;18.592;2023-09-30T05:51:04;16.96;91.91
67249;SHT31;63247;54.300;18.592;2023-09-30T05:53:31;17.28;90.35
67249;SHT31;63247;54.300;18.592;2023-09-30T05:55:58;17.85;89.18
67249;SHT31;63247;54.300;18.592;2023-09-30T05:58:25;17.94;87.70
67249;SHT31;63247;54.300;18.592;2023-09-30T06:00:52;18.73;86.79
67249;SHT31;63247;54.300;18.592;2023-09-30T06:03:18;18.85;85.47
67249;SHT31;63247;54.300;18.592;2023-09-30T06:05:43;19.27;85.11
67249;SHT31;63247;54.300;18.592;2023-09-30T06:08:09;19.49;83.74
67249;SHT31;63247;54.300;18.592;2023-09-30T06:10:42;19.84;83.90
67249;SHT31;63247;54.300;18.592;2023-09-30T06:13:11;19.94;82.83
67249;SHT31;63247;54.300;18.592;2023-09-30T06:15:40;19.38;83.38
67249;SHT31;63247;54.300;18.592;2023-09-30T06:18:07;20.64;80.41
67249;SHT31;63247;54.300;18.592;2023-09-30T06:20:33;20.19;81.29
67249;SHT31;63247;54.300;18.592;2023-09-30T06:22:59;20.70;80.54
67249;SHT31;63247;54.300;18.592;2023-09-30T06:25:27;21.52;79.09
67249;SHT31;63247;54.300;18.592;2023-09-30T06:27:54;22.25;76.94
67249;SHT31;63247;54.300;18.592;2023-09-30T06:30:23;22.13;76.63
67249;SHT31;63247;54.300;18.592;2023-09-30T06:32:57;22.08;76.19
67249;SHT31;63247;54.300;18.592;2023-09-30T06:35:23;22.81;74.62
67249;SHT31;63247;54.300;18.592;2023-09-30T06:37:49;21.86;76.67
67249;SHT31;63247;54.300;18.592;2023-09-30T06:40:15;22.41;75.28
67249;SHT31;63247;54.300;18.592;2023-09-30T06:42:40;21.96;75.11
67249;SHT31;63247;54.300;18.592;2023-09-30T06:45:07;22.62;73.90
67249;SHT31;63247;54.300;18.592;2023-09-30T06:47:33;21.86;75.52
67249;SHT31;63247;54.300;18.592;2023-09-30T06:50:09;23.00;73.49
67249;SHT31;63247;54.300;18.592;2023-09-30T06:52:36;23.09;73.01
67249;SHT31;63247;54.300;18.592;2023-09-30T06:55:08;24.05;70.52
67249;SHT31;63247;54.300;18.592;2023-09-30T06:57:35;24.23;69.97
67249;SHT31;63247;54.300;18.592;2023-09-30T07:00:01;24.36;69.19
67249;SHT31;63247;54.300;18.592;2023-09-30T07:02:26;23.75;71.38
67249;SHT31;63247;54.300;18.592;2023-09-30T07:04:52;24.36;68.41
67249;SHT31;63247;54.300;18.592;2023-09-30T07:07:18;23.64;70.97
67249;SHT31;63247;54.300;18.592;2023-09-30T07:09:44;24.33;69.04
67249;SHT31;63247;54.300;18.592;2023-09-30T07:12:10;23.88;69.17
67249;SHT31;63247;54.300;18.592;2023-09-30T07:14:35;24.78;67.99
67249;SHT31;63247;54.300;18.592;2023-09-30T07:17:01;25.14;66.88
67249;SHT31;63247;54.300;18.592;2023-09-30T07:19:29;25.04;67.23
67249;SHT31;63247;54.300;18.592;2023-09-30T07:21:56;26.24;65.40
67249;SHT31;63247;54.300;18.592;2023-09-30T07:24:21;25.28;66.33
67249;SHT31;63247;54.300;18.592;2023-09-30T07:26:46;25.12;68.00
67249;SHT31;63247;54.300;18.592;2023-09-30T07:29:11;24.70;67.50
67249;SHT31;63247;54.300;18.592;2023-09-30T07:31:37;24.44;67.55
67249;SHT31;63247;54.300;18.592;2023-09-30T07:34:02;25.36;66.77
67249;SHT31;63247;54.300;18.592;2023-09-30T07:36:27;25.50;65.46
67249;SHT31;63247;54.300;18.592;2023-09-30T07:38:53;26.24;65.07
67249;SHT31;63247;54.300;18.592;2023-09-30T07:41:19;25.29;65.88
67249;SHT31;63247;54.300;18.592;2023-09-30T07:43:45;24.12;68.46
67249;SHT31;63247;54.300;18.592;2023-09-30T07:46:10;24.37;68.76
67249;SHT31;63247;54.300;18.592;2023-09-30T07:48:35;23.71;70.17
67249;SHT31;63247;54.300;18.592;2023-09-30T07:51:01;24.96;68.80
67249;SHT31;63247;54.300;18.592;2023-09-30T07:53:27;24.50;69.29
67249;SHT31;63247;54.300;18.592;2023-09-30T07:55:52;24.96;67.16
67249;SHT31;63247;54.300;18.592;2023-09-30T07:58:19;23.79;69.85
67249;SHT31;63247;54.300;18.592;2023-09-30T08:00:45;21.58;74.87
67249;SHT31;63247;54.300;18.592;2023-09-30T08:03:10;21.25;75.83
67249;SHT31;63247;54.300;18.592;2023-09-30T08:05:37;20.05;78.65
67249;SHT31;63247;54.300;18.592;2023-09-30T08:08:02;21.32;75.89
67249;SHT31;63247;54.300;18.592;2023-09-30T08:10:29;24.61;69.45
67249;SHT31;63247;54.300;18.592;2023-09-30T08:12:55;25.38;66.89
67249;SHT31;63247;54.300;18.592;2023-09-30T08:15:23;25.35;66.67
67249;SHT31;63247;54.300;18.592;2023-09-30T08:17:48;26.13;65.10
67249;SHT31;63247;54.300;18.592;2023-09-30T08:20:14;25.74;65.79
67249;SHT31;63247;54.300;18.592;2023-09-30T08:22:39;27.18;63.43
67249;SHT31;63247;54.300;18.592;2023-09-30T08:25:06;28.50;60.62
67249;SHT31;63247;54.300;18.592;2023-09-30T08:27:32;26.79;61.80
67249;SHT31;63247;54.300;18.592;2023-09-30T08:29:57;26.76;62.62
67249;SHT31;63247;54.300;18.592;2023-09-30T08:32:22;27.47;60.04
67249;SHT31;63247;54.300;18.592;2023-09-30T08:34:48;25.45;63.16
67249;SHT31;63247;54.300;18.592;2023-09-30T08:37:13;26.17;62.18
67249;SHT31;63247;54.300;18.592;2023-09-30T08:39:39;25.94;62.53
67249;SHT31;63247;54.300;18.592;2023-09-30T08:42:09;24.56;64.77
67249;SHT31;63247;54.300;18.592;2023-09-30T08:44:38;26.35;62.14
67249;SHT31;63247;54.300;18.592;2023-09-30T08:47:06;23.61;67.28
67249;SHT31;63247;54.300;18.592;2023-09-30T08:49:38;24.87;64.45
67249;SHT31;63247;54.300;18.592;2023-09-30T08:52:09;23.43;68.35
67249;SHT31;63247;54.300;18.592;2023-09-30T08:54:35;23.85;65.54
67249;SHT31;63247;54.300;18.592;2023-09-30T08:57:03;26.14;62.61
67249;SHT31;63247;54.300;18.592;2023-09-30T08:59:31;28.19;59.02
67249;SHT31;63247;54.300;18.592;2023-09-30T09:02:00;29.67;56.82
67249;SHT31;63247;54.300;18.592;2023-09-30T09:04:25;29.47;57.39
67249;SHT31;63247;54.300;18.592;2023-09-30T09:06:53;27.40;60.45
67249;SHT31;63247;54.300;18.592;2023-09-30T09:09:19;23.98;67.32
67249;SHT31;63247;54.300;18.592;2023-09-30T09:11:47;22.77;68.81
67249;SHT31;63247;54.300;18.592;2023-09-30T09:14:13;22.01;69.48
67249;SHT31;63247;54.300;18.592;2023-09-30T09:16:55;23.31;66.83
67249;SHT31;63247;54.300;18.592;2023-09-30T09:19:21;22.44;68.68
67249;SHT31;63247;54.300;18.592;2023-09-30T09:21:58;21.80;69.93
67249;SHT31;63247;54.300;18.592;2023-09-30T09:27:07;24.61;65.85
67249;SHT31;63247;54.300;18.592;2023-09-30T09:29:34;23.77;66.35
67249;SHT31;63247;54.300;18.592;2023-09-30T09:32:15;25.47;63.76
67249;SHT31;63247;54.300;18.592;2023-09-30T09:34:42;26.34;62.39
67249;SHT31;63247;54.300;18.592;2023-09-30T09:37:18;26.97;61.50
67249;SHT31;63247;54.300;18.592;2023-09-30T09:42:29;22.14;69.17
67249;SHT31;63247;54.300;18.592;2023-09-30T09:45:00;23.61;67.88
67249;SHT31;63247;54.300;18.592;2023-09-30T09:47:26;25.46;63.81
67249;SHT31;63247;54.300;18.592;2023-09-30T09:49:53;26.75;61.14
67249;SHT31;63247;54.300;18.592;2023-09-30T09:52:20;28.02;58.89
67249;SHT31;63247;54.300;18.592;2023-09-30T09:54:46;28.63;56.58
67249;SHT31;63247;54.300;18.592;2023-09-30T09:57:12;29.32;56.19
67249;SHT31;63247;54.300;18.592;2023-09-30T09:59:42;25.73;61.02
67249;SHT31;63247;54.300;18.592;2023-09-30T10:02:11;23.62;63.93
67249;SHT31;63247;54.300;18.592;2023-09-30T10:04:43;22.37;68.18
67249;SHT31;63247;54.300;18.592;2023-09-30T10:07:12;21.58;69.54
67249;SHT31;63247;54.300;18.592;2023-09-30T10:09:41;21.14;69.44
67249;SHT31;63247;54.300;18.592;2023-09-30T10:12:09;21.98;68.62
67249;SHT31;63247;54.300;18.592;2023-09-30T10:14:35;20.81;70.86
67249;SHT31;63247;54.300;18.592;2023-09-30T10:17:01;20.09;73.32
67249;SHT31;63247;54.300;18.592;2023-09-30T10:19:28;20.71;73.20
67249;SHT31;63247;54.300;18.592;2023-09-30T10:24:48;22.18;71.49
67249;SHT31;63247;54.300;18.592;2023-09-30T10:35:21;21.80;70.35
67249;SHT31;63247;54.300;18.592;2023-09-30T10:37:47;22.41;69.78
67249;SHT31;63247;54.300;18.592;2023-09-30T10:40:27;22.49;69.34
67249;SHT31;63247;54.300;18.592;2023-09-30T10:42:53;22.47;69.55
67249;SHT31;63247;54.300;18.592;2023-09-30T10:50:56;22.16;69.75
67249;SHT31;63247;54.300;18.592;2023-09-30T10:53:25;21.48;71.28
67249;SHT31;63247;54.300;18.592;2023-09-30T10:55:59;21.12;72.25
67249;SHT31;63247;54.300;18.592;2023-09-30T10:58:47;21.60;72.48
67249;SHT31;63247;54.300;18.592;2023-09-30T11:01:16;22.00;72.94
67249;SHT31;63247;54.300;18.592;2023-09-30T11:03:42;22.00;71.79
67249;SHT31;63247;54.300;18.592;2023-09-30T11:06:11;21.60;72.02
67249;SHT31;63247;54.300;18.592;2023-09-30T11:08:40;21.50;72.30
67249;SHT31;63247;54.300;18.592;2023-09-30T11:11:07;20.29;75.08
67249;SHT31;63247;54.300;18.592;2023-09-30T11:13:33;20.04;75.78
67249;SHT31;63247;54.300;18.592;2023-09-30T11:16:03;19.71;75.65
67249;SHT31;63247;54.300;18.592;2023-09-30T11:18:30;19.33;76.16
67249;SHT31;63247;54.300;18.592;2023-09-30T11:21:23;19.87;76.37
67249;SHT31;63247;54.300;18.592;2023-09-30T11:23:49;19.99;75.94
67249;SHT31;63247;54.300;18.592;2023-09-30T11:26:14;19.92;74.71
67249;SHT31;63247;54.300;18.592;2023-09-30T11:28:44;19.54;75.39
67249;SHT31;63247;54.300;18.592;2023-09-30T11:31:11;20.64;74.00
67249;SHT31;63247;54.300;18.592;2023-09-30T11:33:51;21.08;73.08
67249;SHT31;63247;54.300;18.592;2023-09-30T11:36:19;21.37;72.71
67249;SHT31;63247;54.300;18.592;2023-09-30T11:38:46;21.55;72.10
67249;SHT31;63247;54.300;18.592;2023-09-30T11:41:13;20.63;72.29
67249;SHT31;63247;54.300;18.592;2023-09-30T11:43:57;20.44;73.01
67249;SHT31;63247;54.300;18.592;2023-09-30T11:46:23;20.57;71.69
67249;SHT31;63247;54.300;18.592;2023-09-30T11:49:04;20.63;72.24
67249;SHT31;63247;54.300;18.592;2023-09-30T11:51:42;20.92;70.34
67249;SHT31;63247;54.300;18.592;2023-09-30T11:54:11;21.08;69.86
67249;SHT31;63247;54.300;18.592;2023-09-30T11:56:36;21.31;69.09
67249;SHT31;63247;54.300;18.592;2023-09-30T11:59:03;21.42;71.08
67249;SHT31;63247;54.300;18.592;2023-09-30T12:01:29;21.27;71.14
67249;SHT31;63247;54.300;18.592;2023-09-30T12:03:56;20.66;71.25
67249;SHT31;63247;54.300;18.592;2023-09-30T12:06:21;20.28;71.39
67249;SHT31;63247;54.300;18.592;2023-09-30T12:08:47;20.54;70.39
67249;SHT31;63247;54.300;18.592;2023-09-30T12:11:12;21.02;70.54
67249;SHT31;63247;54.300;18.592;2023-09-30T12:13:41;20.66;70.24
67249;SHT31;63247;54.300;18.592;2023-09-30T12:16:07;20.47;71.92
67249;SHT31;63247;54.300;18.592;2023-09-30T12:18:32;20.21;72.75
67249;SHT31;63247;54.300;18.592;2023-09-30T12:20:57;20.53;72.12
67249;SHT31;63247;54.300;18.592;2023-09-30T12:23:23;20.54;71.58
67249;SHT31;63247;54.300;18.592;2023-09-30T12:25:48;20.69;72.10
67249;SHT31;63247;54.300;18.592;2023-09-30T12:28:14;20.74;71.40
67249;SHT31;63247;54.300;18.592;2023-09-30T12:30:40;20.06;71.84
67249;SHT31;63247;54.300;18.592;2023-09-30T12:33:07;20.29;72.07
67249;SHT31;63247;54.300;18.592;2023-09-30T12:35:33;20.25;72.52
67249;SHT31;63247;54.300;18.592;2023-09-30T12:37:58;20.33;71.26
67249;SHT31;63247;54.300;18.592;2023-09-30T12:40:24;20.46;71.17
67249;SHT31;63247;54.300;18.592;2023-09-30T12:42:49;20.60;71.01
67249;SHT31;63247;54.300;18.592;2023-09-30T12:45:15;19.98;72.05
67249;SHT31;63247;54.300;18.592;2023-09-30T12:47:42;19.60;73.16
67249;SHT31;63247;54.300;18.592;2023-09-30T12:50:07;19.68;72.21
67249;SHT31;63247;54.300;18.592;2023-09-30T12:52:34;19.49;73.21
67249;SHT31;63247;54.300;18.592;2023-09-30T12:55:00;19.22;74.67
67249;SHT31;63247;54.300;18.592;2023-09-30T12:57:25;19.45;74.42
67249;SHT31;63247;54.300;18.592;2023-09-30T12:59:51;19.43;74.40
67249;SHT31;63247;54.300;18.592;2023-09-30T13:02:16;18.98;74.79
67249;SHT31;63247;54.300;18.592;2023-09-30T13:04:43;19.23;74.48
67249;SHT31;63247;54.300;18.592;2023-09-30T13:07:10;19.53;74.74
67249;SHT31;63247;54.300;18.592;2023-09-30T13:09:36;19.30;75.64
67249;SHT31;63247;54.300;18.592;2023-09-30T13:12:04;19.58;74.95
67249;SHT31;63247;54.300;18.592;2023-09-30T13:14:30;19.13;75.43
67249;SHT31;63247;54.300;18.592;2023-09-30T13:16:55;19.09;76.49
67249;SHT31;63247;54.300;18.592;2023-09-30T13:19:20;19.43;75.29
67249;SHT31;63247;54.300;18.592;2023-09-30T13:21:49;19.31;75.29
67249;SHT31;63247;54.300;18.592;2023-09-30T13:24:24;19.60;74.83
67249;SHT31;63247;54.300;18.592;2023-09-30T13:26:49;19.56;75.59
67249;SHT31;63247;54.300;18.592;2023-09-30T13:29:18;19.60;75.96
67249;SHT31;63247;54.300;18.592;2023-09-30T13:31:43;19.50;75.08
67249;SHT31;63247;54.300;18.592;2023-09-30T13:34:10;19.29;75.74
67249;SHT31;63247;54.300;18.592;2023-09-30T13:36:37;18.87;76.19
67249;SHT31;63247;54.300;18.592;2023-09-30T13:39:02;18.88;75.83
67249;SHT31;63247;54.300;18.592;2023-09-30T13:41:33;18.96;76.49
67249;SHT31;63247;54.300;18.592;2023-09-30T13:43:58;19.15;75.71
67249;SHT31;63247;54.300;18.592;2023-09-30T13:46:23;19.06;76.62
67249;SHT31;63247;54.300;18.592;2023-09-30T13:48:51;19.26;76.63
67249;SHT31;63247;54.300;18.592;2023-09-30T13:51:17;19.03;76.69
67249;SHT31;63247;54.300;18.592;2023-09-30T13:53:43;18.91;76.84
67249;SHT31;63247;54.300;18.592;2023-09-30T13:56:08;18.75;77.49
67249;SHT31;63247;54.300;18.592;2023-09-30T13:58:36;18.58;77.27
67249;SHT31;63247;54.300;18.592;2023-09-30T14:01:01;18.24;77.25
67249;SHT31;63247;54.300;18.592;2023-09-30T14:03:26;17.93;77.51
67249;SHT31;63247;54.300;18.592;2023-09-30T14:05:52;17.87;77.96
67249;SHT31;63247;54.300;18.592;2023-09-30T14:08:18;18.00;77.93
67249;SHT31;63247;54.300;18.592;2023-09-30T14:10:44;17.96;77.96
67249;SHT31;63247;54.300;18.592;2023-09-30T14:13:10;17.92;78.56
67249;SHT31;63247;54.300;18.592;2023-09-30T14:15:35;17.86;78.82
67249;SHT31;63247;54.300;18.592;2023-09-30T14:18:02;17.92;77.93
67249;SHT31;63247;54.300;18.592;2023-09-30T14:20:27;17.89;78.31
67249;SHT31;63247;54.300;18.592;2023-09-30T14:22:53;17.86;78.27
67249;SHT31;63247;54.300;18.592;2023-09-30T14:25:20;17.90;78.94
67249;SHT31;63247;54.300;18.592;2023-09-30T14:27:47;17.90;79.12
67249;SHT31;63247;54.300;18.592;2023-09-30T14:30:12;17.81;79.82
67249;SHT31;63247;54.300;18.592;2023-09-30T14:32:38;17.89;79.81
67249;SHT31;63247;54.300;18.592;2023-09-30T14:35:04;17.93;79.92
67249;SHT31;63247;54.300;18.592;2023-09-30T14:37:31;17.99;79.84
67249;SHT31;63247;54.300;18.592;2023-09-30T14:39:56;18.06;80.57
67249;SHT31;63247;54.300;18.592;2023-09-30T14:42:21;18.00;80.39
67249;SHT31;63247;54.300;18.592;2023-09-30T14:44:47;17.69;80.19
67249;SHT31;63247;54.300;18.592;2023-09-30T14:47:12;17.39;80.87
67249;SHT31;63247;54.300;18.592;2023-09-30T14:49:38;17.34;80.82
67249;SHT31;63247;54.300;18.592;2023-09-30T14:52:03;17.31;80.54
67249;SHT31;63247;54.300;18.592;2023-09-30T14:54:30;17.44;80.49
67249;SHT31;63247;54.300;18.592;2023-09-30T14:56:56;17.35;80.69
67249;SHT31;63247;54.300;18.592;2023-09-30T14:59:21;17.49;80.93
67249;SHT31;63247;54.300;18.592;2023-09-30T15:01:47;17.39;81.42
67249;SHT31;63247;54.300;18.592;2023-09-30T15:04:14;17.49;81.29
67249;SHT31;63247;54.300;18.592;2023-09-30T15:06:40;17.39;81.54
67249;SHT31;63247;54.300;18.592;2023-09-30T15:09:06;17.35;81.11
67249;SHT31;63247;54.300;18.592;2023-09-30T15:11:34;17.25;81.55
67249;SHT31;63247;54.300;18.592;2023-09-30T15:14:00;17.18;82.42
67249;SHT31;63247;54.300;18.592;2023-09-30T15:16:25;17.24;82.20
67249;SHT31;63247;54.300;18.592;2023-09-30T15:18:50;17.20;82.27
67249;SHT31;63247;54.300;18.592;2023-09-30T15:21:16;17.34;82.07
67249;SHT31;63247;54.300;18.592;2023-09-30T15:23:43;17.16;82.78
67249;SHT31;63247;54.300;18.592;2023-09-30T15:26:08;17.03;83.05
67249;SHT31;63247;54.300;18.592;2023-09-30T15:28:34;16.87;83.56
67249;SHT31;63247;54.300;18.592;2023-09-30T15:31:00;16.70;84.36
67249;SHT31;63247;54.300;18.592;2023-09-30T15:33:28;16.59;84.76
67249;SHT31;63247;54.300;18.592;2023-09-30T15:35:54;16.67;84.57